createdAt,value
2018-12-06T00:01:00.530Z,13.50
2018-12-06T00:03:41.714Z,12.70
2018-12-06T00:06:10.950Z,12.35
2018-12-06T00:08:52.181Z,13.93
2018-12-06T00:11:21.192Z,12.82
2018-12-06T00:14:02.385Z,13.68
2018-12-06T00:16:31.283Z,14.43
2018-12-06T00:19:12.899Z,13.35
2018-12-06T00:21:42.096Z,13.53
2018-12-06T00:24:23.265Z,13.95
2018-12-06T00:26:52.498Z,13.40
2018-12-06T00:29:33.783Z,12.63
2018-12-06T00:32:04.595Z,12.93
2018-12-06T00:34:45.793Z,13.75
2018-12-06T00:37:14.682Z,13.45
2018-12-06T00:39:55.861Z,13.93
2018-12-06T00:42:24.833Z,13.50
2018-12-06T00:45:06.050Z,12.88
2018-12-06T00:47:36.246Z,14.60
2018-12-06T00:50:17.514Z,12.00
2018-12-06T00:52:46.514Z,10.93
2018-12-06T00:55:27.685Z,10.95
2018-12-06T00:57:56.699Z,11.43
2018-12-06T01:00:37.864Z,10.48
2018-12-06T01:03:06.771Z,12.13
2018-12-06T01:05:47.979Z,11.85
2018-12-06T01:08:16.892Z,10.72
2018-12-06T01:10:58.093Z,10.70
2018-12-06T01:13:27.007Z,9.60
2018-12-06T01:16:08.161Z,11.77
2018-12-06T01:18:37.058Z,9.53
2018-12-06T01:21:18.251Z,9.33
2018-12-06T01:23:47.159Z,8.87
2018-12-06T01:26:28.325Z,9.43
2018-12-06T01:28:57.862Z,9.63
2018-12-06T01:31:39.099Z,9.50
2018-12-06T01:34:08.366Z,9.30
2018-12-06T01:36:49.559Z,8.90
2018-12-06T01:39:18.465Z,8.40
2018-12-06T01:41:59.756Z,8.25
2018-12-06T01:44:28.766Z,8.73
2018-12-06T01:47:09.930Z,9.50
2018-12-06T01:49:38.835Z,9.90
2018-12-06T01:52:20.090Z,9.48
2018-12-06T01:54:49.114Z,8.80
2018-12-06T01:57:30.310Z,8.30
2018-12-06T01:59:59.231Z,9.15
2018-12-06T02:02:41.558Z,8.45
2018-12-06T02:05:10.481Z,8.60
2018-12-06T02:07:51.673Z,7.92
2018-12-06T02:10:20.577Z,9.78
2018-12-06T02:13:01.787Z,8.03
2018-12-06T02:15:30.742Z,7.15
2018-12-06T02:18:11.913Z,7.22
2018-12-06T02:20:40.834Z,9.05
2018-12-06T02:23:22.032Z,8.23
2018-12-06T02:25:51.043Z,11.08
2018-12-06T02:28:32.294Z,7.50
2018-12-06T02:31:01.315Z,7.70
2018-12-06T02:33:43.446Z,7.92
2018-12-06T02:36:12.455Z,8.05
2018-12-06T02:38:53.658Z,7.83
2018-12-06T02:41:22.862Z,7.20
2018-12-06T02:44:04.389Z,7.90
2018-12-06T02:46:33.311Z,7.37
2018-12-06T02:49:14.655Z,6.37
2018-12-06T02:51:43.668Z,7.15
2018-12-06T02:54:24.864Z,6.80
2018-12-06T02:56:55.271Z,7.30
2018-12-06T02:59:36.438Z,7.35
2018-12-06T03:02:06.419Z,7.15
2018-12-06T03:04:47.751Z,8.48
2018-12-06T03:07:18.575Z,7.50
2018-12-06T03:09:59.768Z,8.38
2018-12-06T03:12:28.841Z,7.10
2018-12-06T03:15:10.185Z,8.40
2018-12-06T03:17:51.567Z,8.30
2018-12-06T03:20:20.462Z,8.68
2018-12-06T03:23:01.763Z,9.85
2018-12-06T03:25:30.783Z,8.78
2018-12-06T03:28:11.976Z,7.92
2018-12-06T03:30:42.202Z,8.63
2018-12-06T03:33:23.443Z,8.03
2018-12-06T03:35:52.459Z,8.60
2018-12-06T03:38:33.690Z,8.08
2018-12-06T03:41:03.122Z,8.25
2018-12-06T03:43:44.679Z,7.70
2018-12-06T03:46:15.490Z,7.65
2018-12-06T03:48:56.695Z,7.72
2018-12-06T03:51:25.615Z,8.28
2018-12-06T03:54:06.818Z,7.70
2018-12-06T03:56:35.837Z,6.53
2018-12-06T03:59:24.378Z,6.95
2018-12-06T04:01:56.350Z,6.53
2018-12-06T04:04:37.599Z,6.50
2018-12-06T04:07:06.495Z,8.25
2018-12-06T04:09:47.690Z,8.35
2018-12-06T04:12:16.593Z,7.03
2018-12-06T04:14:57.813Z,7.45
2018-12-06T04:17:26.879Z,7.10
2018-12-06T04:20:08.174Z,7.25
2018-12-06T04:22:37.258Z,7.95
2018-12-06T04:25:18.470Z,6.45
2018-12-06T04:27:48.763Z,7.22
2018-12-06T04:30:29.985Z,7.40
2018-12-06T04:33:00.202Z,7.15
2018-12-06T04:35:41.446Z,6.62
2018-12-06T04:38:10.320Z,7.42
2018-12-06T04:40:51.654Z,6.10
2018-12-06T04:43:20.760Z,6.78
2018-12-06T04:46:02.313Z,8.53
2018-12-06T04:48:31.315Z,7.42
2018-12-06T04:51:12.539Z,6.85
2018-12-06T04:53:41.459Z,7.55
2018-12-06T04:56:22.643Z,5.92
2018-12-06T04:58:52.759Z,7.12
2018-12-06T05:01:34.467Z,7.95
2018-12-06T05:04:03.380Z,7.55
2018-12-06T05:06:44.637Z,7.28
2018-12-06T05:09:13.584Z,8.38
2018-12-06T05:11:54.837Z,7.90
2018-12-06T05:14:24.847Z,7.20
2018-12-06T05:17:06.094Z,8.08
2018-12-06T05:19:36.944Z,7.43
2018-12-06T05:23:21.553Z,7.60
2018-12-06T05:25:52.391Z,6.92
2018-12-06T05:28:40.255Z,8.53
2018-12-06T05:31:11.074Z,8.08
2018-12-06T05:33:52.276Z,8.00
2018-12-06T05:36:21.162Z,9.30
2018-12-06T05:39:02.601Z,8.70
2018-12-06T05:41:31.490Z,9.13
2018-12-06T05:44:12.781Z,8.35
2018-12-06T05:46:41.682Z,9.10
2018-12-06T05:49:22.870Z,9.70
2018-12-06T05:51:51.752Z,11.30
2018-12-06T05:54:32.958Z,10.00
2018-12-06T05:57:01.852Z,9.45
2018-12-06T05:59:43.031Z,10.32
2018-12-06T06:02:12.034Z,10.53
2018-12-06T06:04:53.274Z,8.85
2018-12-06T06:07:22.472Z,8.35
2018-12-06T06:10:04.115Z,12.88
2018-12-06T06:12:33.017Z,10.08
2018-12-06T06:15:14.230Z,9.73
2018-12-06T06:17:43.130Z,11.03
2018-12-06T06:20:24.341Z,11.35
2018-12-06T06:22:53.339Z,10.23
2018-12-06T06:25:34.609Z,10.63
2018-12-06T06:28:03.502Z,10.00
2018-12-06T06:30:44.689Z,10.38
2018-12-06T06:33:13.587Z,9.38
2018-12-06T06:35:54.791Z,10.85
2018-12-06T06:38:23.800Z,15.30
2018-12-06T06:41:05.010Z,13.43
2018-12-06T06:43:34.042Z,15.28
2018-12-06T06:46:15.251Z,25.80
2018-12-06T06:48:44.147Z,21.07
2018-12-06T06:51:25.437Z,13.83
2018-12-06T06:53:54.337Z,13.90
2018-12-06T06:56:35.585Z,18.98
2018-12-06T06:59:06.004Z,17.77
2018-12-06T07:01:53.266Z,17.10
2018-12-06T07:04:22.146Z,14.13
2018-12-06T07:07:03.367Z,12.68
2018-12-06T07:09:32.268Z,11.70
2018-12-06T07:12:13.638Z,10.40
2018-12-06T07:14:42.562Z,11.50
2018-12-06T07:17:23.815Z,11.03
2018-12-06T07:19:59.574Z,10.15
2018-12-06T07:22:41.405Z,29.12
2018-12-06T07:25:10.529Z,17.00
2018-12-06T07:27:51.714Z,12.60
2018-12-06T07:30:20.839Z,10.60
2018-12-06T07:33:02.190Z,10.45
2018-12-06T07:35:32.223Z,11.90
2018-12-06T07:38:13.558Z,11.10
2018-12-06T07:40:42.491Z,11.57
2018-12-06T07:43:23.718Z,11.33
2018-12-06T07:45:57.190Z,11.05
2018-12-06T07:48:39.624Z,12.30
2018-12-06T07:51:08.774Z,12.37
2018-12-06T07:53:50.282Z,11.35
2018-12-06T07:56:19.510Z,11.53
2018-12-06T07:59:00.854Z,12.53
2018-12-06T08:01:29.882Z,17.35
2018-12-06T08:04:11.085Z,13.15
2018-12-06T08:06:40.059Z,13.90
2018-12-06T08:09:21.249Z,13.32
2018-12-06T08:11:50.170Z,13.10
2018-12-06T08:14:31.454Z,12.43
2018-12-06T08:17:00.339Z,13.60
2018-12-06T08:19:41.551Z,14.45
2018-12-06T08:22:10.485Z,13.13
2018-12-06T08:24:51.679Z,11.08
2018-12-06T08:27:20.767Z,12.05
2018-12-06T08:30:02.030Z,13.25
2018-12-06T08:32:31.359Z,11.70
2018-12-06T08:35:12.570Z,12.10
2018-12-06T08:37:41.471Z,11.55
2018-12-06T08:40:22.714Z,11.57
2018-12-06T08:42:51.617Z,10.38
2018-12-06T08:45:32.831Z,11.25
2018-12-06T08:48:02.757Z,12.88
2018-12-06T08:50:43.963Z,12.03
2018-12-06T08:53:12.864Z,11.22
2018-12-06T08:55:54.107Z,10.13
2018-12-06T08:58:23.005Z,11.60
2018-12-06T09:01:04.230Z,11.63
2018-12-06T09:03:33.162Z,11.95
2018-12-06T09:06:14.503Z,12.53
2018-12-06T09:08:43.431Z,12.60
2018-12-06T09:11:24.760Z,10.95
2018-12-06T09:13:54.466Z,11.83
2018-12-06T09:16:35.667Z,11.22
2018-12-06T09:19:04.823Z,11.35
2018-12-06T09:21:46.119Z,10.40
2018-12-06T09:24:15.031Z,12.45
2018-12-06T09:26:58.917Z,12.18
2018-12-06T09:29:27.276Z,12.95
2018-12-06T09:32:08.498Z,12.37
2018-12-06T09:34:37.412Z,11.83
2018-12-06T09:37:18.612Z,11.78
2018-12-06T09:39:59.680Z,10.98
2018-12-06T09:42:40.950Z,11.80
2018-12-06T09:45:09.891Z,12.77
2018-12-06T09:47:51.089Z,12.37
2018-12-06T09:50:20.099Z,11.53
2018-12-06T09:53:01.399Z,13.60
2018-12-06T09:55:30.289Z,11.20
2018-12-06T09:58:11.647Z,11.53
2018-12-06T10:00:40.556Z,13.37
2018-12-06T10:03:21.830Z,11.67
2018-12-06T10:05:50.746Z,12.40
2018-12-06T10:08:32.126Z,12.93
2018-12-06T10:11:01.430Z,12.90
2018-12-06T10:13:42.675Z,12.03
2018-12-06T10:16:11.783Z,13.00
2018-12-06T10:18:52.971Z,13.93
2018-12-06T10:21:21.897Z,12.80
2018-12-06T10:24:03.234Z,14.20
2018-12-06T10:26:32.174Z,13.62
2018-12-06T10:29:13.414Z,13.53
2018-12-06T10:31:42.549Z,13.40
2018-12-06T10:34:29.766Z,14.03
2018-12-06T10:36:58.790Z,13.83
2018-12-06T10:39:39.987Z,14.03
2018-12-06T10:42:10.798Z,14.15
2018-12-06T10:44:52.014Z,14.10
2018-12-06T10:47:22.901Z,14.13
2018-12-06T10:50:05.075Z,14.27
2018-12-06T10:52:35.893Z,13.90
2018-12-06T10:55:17.115Z,14.50
2018-12-06T10:57:46.029Z,14.60
2018-12-06T11:01:34.552Z,16.83
2018-12-06T11:04:03.624Z,14.80
2018-12-06T11:06:44.810Z,14.07
2018-12-06T11:09:13.820Z,14.37
2018-12-06T11:11:55.067Z,14.07
2018-12-06T11:14:24.165Z,15.53
2018-12-06T11:17:05.540Z,13.97
2018-12-06T11:19:34.546Z,13.97
2018-12-06T11:22:15.822Z,15.70
2018-12-06T11:24:44.737Z,15.00
2018-12-06T11:27:25.942Z,14.50
2018-12-06T11:29:55.043Z,16.50
2018-12-06T11:32:36.350Z,13.78
2018-12-06T11:35:05.703Z,15.48
2018-12-06T11:37:46.937Z,15.00
2018-12-06T11:40:15.816Z,14.80
2018-12-06T11:42:57.124Z,13.70
2018-12-06T11:45:26.052Z,13.08
2018-12-06T11:48:07.273Z,14.87
2018-12-06T11:50:36.183Z,15.63
2018-12-06T11:53:19.264Z,14.47
2018-12-06T11:55:48.976Z,15.65
2018-12-06T11:58:30.451Z,12.82
2018-12-06T12:00:59.635Z,14.23
2018-12-06T12:03:40.862Z,14.75
2018-12-06T12:06:09.775Z,16.50
2018-12-06T12:08:51.943Z,16.07
2018-12-06T12:11:21.057Z,15.00
2018-12-06T12:14:02.258Z,16.07
2018-12-06T12:16:31.186Z,16.87
2018-12-06T12:19:12.686Z,16.20
2018-12-06T12:21:41.805Z,16.87
2018-12-06T12:24:23.011Z,17.05
2018-12-06T12:26:51.926Z,15.18
2018-12-06T12:29:33.139Z,17.52
2018-12-06T12:32:03.866Z,16.30
2018-12-06T12:34:45.098Z,16.35
2018-12-06T12:37:14.019Z,16.30
2018-12-06T12:39:55.302Z,16.48
2018-12-06T12:42:24.183Z,15.68
2018-12-06T12:45:06.286Z,16.70
2018-12-06T12:47:35.311Z,17.25
2018-12-06T12:50:16.556Z,17.80
2018-12-06T12:52:45.470Z,17.48
2018-12-06T12:55:26.783Z,15.95
2018-12-06T12:57:55.822Z,17.65
2018-12-06T13:00:37.031Z,16.30
2018-12-06T13:03:18.395Z,17.70
2018-12-06T13:05:47.311Z,19.03
2018-12-06T13:08:28.581Z,17.35
2018-12-06T13:10:57.558Z,17.20
2018-12-06T13:13:41.207Z,20.60
2018-12-06T13:16:10.151Z,18.92
2018-12-06T13:18:51.362Z,17.90
2018-12-06T13:21:20.290Z,17.02
2018-12-06T13:24:01.480Z,20.67
2018-12-06T13:26:30.822Z,17.82
2018-12-06T13:29:12.017Z,18.92
2018-12-06T13:31:40.940Z,21.07
2018-12-06T13:34:22.115Z,18.03
2018-12-06T13:36:51.154Z,18.87
2018-12-06T13:39:32.383Z,18.32
2018-12-06T13:42:01.295Z,17.82
2018-12-06T13:44:42.570Z,18.87
2018-12-06T13:47:11.499Z,17.95
2018-12-06T13:49:52.677Z,18.73
2018-12-06T13:52:21.710Z,21.05
2018-12-06T13:55:03.555Z,22.30
2018-12-06T13:57:33.474Z,20.90
2018-12-06T14:00:17.119Z,19.20
2018-12-06T14:02:46.048Z,17.67
2018-12-06T14:05:27.226Z,18.40
2018-12-06T14:07:58.118Z,20.37
2018-12-06T14:10:39.314Z,20.97
2018-12-06T14:13:08.211Z,18.83
2018-12-06T14:15:49.399Z,21.10
2018-12-06T14:18:18.542Z,21.45
2018-12-06T14:20:59.733Z,19.73
2018-12-06T14:23:28.755Z,18.37
2018-12-06T14:26:11.163Z,19.87
2018-12-06T14:28:40.264Z,20.20
2018-12-06T14:31:21.468Z,19.50
2018-12-06T14:33:50.392Z,18.93
2018-12-06T14:36:31.618Z,21.87
2018-12-06T14:39:00.551Z,18.70
2018-12-06T14:41:41.844Z,19.35
2018-12-06T14:44:10.833Z,18.52
2018-12-06T14:46:52.040Z,20.30
2018-12-06T14:49:20.978Z,19.90
2018-12-06T14:52:02.189Z,19.00
2018-12-06T14:54:31.123Z,19.25
2018-12-06T14:57:12.555Z,19.67
2018-12-06T14:59:41.663Z,19.27
2018-12-06T15:02:22.937Z,19.85
2018-12-06T15:04:51.943Z,20.85
2018-12-06T15:07:33.138Z,20.82
2018-12-06T15:10:05.135Z,20.92
2018-12-06T15:12:46.350Z,20.92
2018-12-06T15:15:15.627Z,21.82
2018-12-06T15:17:56.822Z,18.52
2018-12-06T15:20:26.103Z,23.02
2018-12-06T15:23:07.394Z,20.40
2018-12-06T15:25:41.843Z,20.40
2018-12-06T15:28:19.619Z,19.15
2018-12-06T15:30:49.064Z,18.85
2018-12-06T15:33:30.427Z,20.57
2018-12-06T15:35:59.450Z,19.82
2018-12-06T15:38:40.639Z,20.72
2018-12-06T15:41:09.843Z,19.95
2018-12-06T15:43:51.038Z,21.65
2018-12-06T15:46:20.072Z,21.05
2018-12-06T15:49:01.275Z,21.57
2018-12-06T15:51:30.341Z,22.13
2018-12-06T15:54:11.563Z,21.17
2018-12-06T15:56:40.851Z,20.20
2018-12-06T15:59:27.444Z,20.02
2018-12-06T16:01:56.483Z,21.05
2018-12-06T16:04:37.667Z,21.35
2018-12-06T16:07:06.835Z,22.22
2018-12-06T16:09:48.191Z,22.85
2018-12-06T16:12:17.218Z,22.30
2018-12-06T16:14:58.402Z,22.17
2018-12-06T16:17:27.457Z,22.32
2018-12-06T16:20:10.389Z,22.90
2018-12-06T16:22:39.426Z,22.85
2018-12-06T16:25:20.639Z,21.45
2018-12-06T16:27:49.658Z,19.67
2018-12-06T16:30:30.919Z,23.32
2018-12-06T16:33:00.251Z,23.73
2018-12-06T16:35:41.490Z,22.25
2018-12-06T16:38:10.458Z,21.60
2018-12-06T16:40:51.638Z,24.30
2018-12-06T16:43:20.568Z,23.07
2018-12-06T16:46:01.791Z,20.68
2018-12-06T16:48:31.120Z,24.57
2018-12-06T16:51:12.671Z,25.10
2018-12-06T16:53:41.610Z,24.55
2018-12-06T16:56:22.821Z,24.32
2018-12-06T16:58:51.854Z,21.77
2018-12-06T17:01:33.595Z,21.95
2018-12-06T17:04:02.570Z,24.45
2018-12-06T17:06:43.802Z,23.90
2018-12-06T17:09:12.719Z,21.62
2018-12-06T17:11:54.312Z,22.62
2018-12-06T17:14:23.855Z,24.43
2018-12-06T17:17:05.344Z,23.05
2018-12-06T17:19:34.282Z,24.18
2018-12-06T17:22:15.502Z,23.47
2018-12-06T17:24:44.430Z,20.82
2018-12-06T17:27:25.653Z,19.50
2018-12-06T17:29:54.984Z,22.20
2018-12-06T17:32:36.738Z,21.70
2018-12-06T17:35:07.233Z,22.17
2018-12-06T17:37:48.653Z,23.70
2018-12-06T17:40:17.839Z,23.65
2018-12-06T17:42:59.430Z,23.15
2018-12-06T17:45:29.721Z,25.85
2018-12-06T17:48:10.960Z,23.80
2018-12-06T17:50:40.270Z,22.93
2018-12-06T17:53:21.962Z,23.75
2018-12-06T17:55:55.366Z,23.07
2018-12-06T17:58:36.638Z,22.52
2018-12-06T18:01:06.243Z,22.40
2018-12-06T18:03:47.471Z,21.52
2018-12-06T18:06:17.258Z,21.17
2018-12-06T18:08:58.436Z,23.40
2018-12-06T18:11:28.018Z,22.20
2018-12-06T18:14:09.236Z,24.10
2018-12-06T18:16:38.295Z,23.92
2018-12-06T18:19:19.532Z,23.83
2018-12-06T18:22:01.493Z,23.87
2018-12-06T18:24:30.524Z,22.50
2018-12-06T18:27:11.764Z,22.30
2018-12-06T18:29:40.694Z,23.60
2018-12-06T18:32:21.911Z,23.57
2018-12-06T18:34:50.806Z,22.75
2018-12-06T18:37:32.250Z,22.87
2018-12-06T18:40:01.205Z,21.25
2018-12-06T18:42:42.576Z,25.77
2018-12-06T18:45:11.579Z,25.45
2018-12-06T18:47:52.817Z,27.37
2018-12-06T18:50:21.843Z,25.30
2018-12-06T18:53:03.173Z,25.30
2018-12-06T18:55:32.086Z,25.68
2018-12-06T18:58:13.362Z,27.17
2018-12-06T19:00:42.292Z,25.35
2018-12-06T19:03:23.594Z,24.80
2018-12-06T19:05:52.829Z,24.95
2018-12-06T19:08:34.051Z,23.50
2018-12-06T19:11:03.067Z,25.00
2018-12-06T19:13:44.328Z,25.92
2018-12-06T19:16:13.251Z,25.43
2018-12-06T19:18:54.510Z,26.10
2018-12-06T19:21:23.431Z,25.00
2018-12-06T19:24:04.662Z,26.00
2018-12-06T19:26:33.607Z,26.07
2018-12-06T19:29:14.855Z,25.88
2018-12-06T19:31:45.664Z,27.30
2018-12-06T19:34:26.901Z,31.93
2018-12-06T19:36:56.783Z,29.48
2018-12-06T19:39:37.983Z,30.77
2018-12-06T19:42:06.996Z,30.48
2018-12-06T19:44:48.978Z,29.20
2018-12-06T19:47:18.014Z,29.25
2018-12-06T19:49:59.227Z,33.67
2018-12-06T19:52:28.248Z,31.15
2018-12-06T19:55:09.462Z,32.42
2018-12-06T19:57:38.489Z,32.88
2018-12-06T20:00:28.698Z,32.95
2018-12-06T20:02:58.439Z,36.48
2018-12-06T20:05:40.110Z,32.48
2018-12-06T20:08:09.798Z,34.55
2018-12-06T20:10:51.044Z,35.23
2018-12-06T20:13:20.437Z,30.95
2018-12-06T20:16:01.662Z,29.67
2018-12-06T20:18:31.388Z,32.70
2018-12-06T20:21:13.142Z,30.52
2018-12-06T20:23:43.347Z,30.60
2018-12-06T20:26:24.574Z,31.90
2018-12-06T20:28:53.486Z,30.72
2018-12-06T20:31:34.751Z,28.80
2018-12-06T20:34:03.692Z,28.47
2018-12-06T20:36:44.954Z,28.85
2018-12-06T20:39:14.957Z,28.20
2018-12-06T20:41:56.223Z,30.45
2018-12-06T20:44:25.267Z,32.20
2018-12-06T20:47:06.503Z,30.82
2018-12-06T20:49:37.315Z,33.92
2018-12-06T20:52:18.940Z,29.90
2018-12-06T20:54:49.800Z,30.00
2018-12-06T20:57:37.180Z,29.90
2018-12-06T21:00:02.638Z,27.85
2018-12-06T21:02:43.947Z,29.32
2018-12-06T21:05:13.078Z,30.12
2018-12-06T21:07:55.909Z,30.02
2018-12-06T21:10:25.160Z,30.43
2018-12-06T21:13:06.592Z,31.05
2018-12-06T21:15:35.493Z,30.65
2018-12-06T21:18:16.698Z,30.85
2018-12-06T21:20:45.602Z,29.25
2018-12-06T21:23:27.925Z,29.63
2018-12-06T21:25:57.132Z,29.63
2018-12-06T21:28:45.065Z,29.40
2018-12-06T21:31:14.125Z,31.75
2018-12-06T21:33:55.422Z,29.00
2018-12-06T21:36:24.362Z,29.90
2018-12-06T21:39:08.043Z,29.12
2018-12-06T21:41:37.387Z,29.42
2018-12-06T21:44:24.150Z,28.02
2018-12-06T21:46:53.471Z,29.35
2018-12-06T21:49:35.100Z,32.45
2018-12-06T21:52:04.686Z,33.05
2018-12-06T21:54:45.952Z,33.42
2018-12-06T21:57:14.850Z,34.53
2018-12-06T21:59:56.036Z,34.00
2018-12-06T22:02:27.014Z,34.13
2018-12-06T22:05:08.482Z,32.88
2018-12-06T22:07:37.694Z,34.20
2018-12-06T22:10:18.914Z,34.33
2018-12-06T22:12:48.641Z,34.40
2018-12-06T22:15:29.831Z,34.85
2018-12-06T22:17:58.841Z,32.88
2018-12-06T22:20:40.479Z,35.38
2018-12-06T22:23:09.371Z,34.85
2018-12-06T22:25:50.617Z,35.35
2018-12-06T22:28:19.611Z,34.95
2018-12-06T22:31:00.846Z,34.83
2018-12-06T22:33:29.745Z,36.68
2018-12-06T22:36:10.949Z,37.78
2018-12-06T22:38:39.874Z,37.93
2018-12-06T22:41:21.066Z,36.08
2018-12-06T22:43:49.945Z,37.15
2018-12-06T22:46:31.240Z,36.10
2018-12-06T22:49:00.343Z,35.75
2018-12-06T22:51:41.626Z,33.00
2018-12-06T22:54:10.519Z,33.20
2018-12-06T22:56:51.782Z,32.03
2018-12-06T22:59:27.654Z,29.87
2018-12-06T23:02:08.919Z,29.40
2018-12-06T23:04:37.815Z,30.15
2018-12-06T23:07:19.017Z,32.20
2018-12-06T23:09:48.038Z,30.32
2018-12-06T23:12:29.542Z,31.45
2018-12-06T23:14:58.582Z,30.37
2018-12-06T23:17:39.789Z,31.68
2018-12-06T23:20:09.030Z,32.50
2018-12-06T23:22:50.442Z,31.07
2018-12-06T23:25:21.240Z,29.55
2018-12-06T23:28:02.627Z,31.52
2018-12-06T23:30:31.550Z,32.95
2018-12-06T23:33:13.400Z,30.88
2018-12-06T23:35:42.294Z,31.20
2018-12-06T23:38:23.490Z,29.37
2018-12-06T23:40:52.395Z,28.98
2018-12-06T23:43:33.675Z,30.70
2018-12-06T23:46:02.643Z,29.42
2018-12-06T23:48:43.874Z,30.25
2018-12-06T23:51:35.423Z,29.30
2018-12-06T23:54:16.631Z,28.25
2018-12-06T23:56:45.559Z,29.45
2018-12-06T23:59:28.249Z,26.95
